This is the latest recevied weather packets stored in our database for station/object N4OGP-WX. If no packets are shown the sender has not sent any weather packets the latest 10 day(s).
| Time | Temp. | Humidity | Pressure | Rain* | Wind** | Luminosity | Snow |
|---|---|---|---|---|---|---|---|
| 1777457629 | 23.33° C | 93% | 1012.7 hPa | 0 mm | - | - | - |
| 1777457539 | 23.33° C | 93% | 1012.7 hPa | 0 mm | - | - | - |
| 1777457479 | 23.33° C | 93% | 1012.7 hPa | 0 mm | - | - | - |
| 1777457389 | 23.89° C | 42% | 1020.4 hPa | 0 mm | - | - | - |
| 1777457329 | 23.33° C | 93% | 1012.7 hPa | 0 mm | - | - | - |
| 1777457239 | 23.33° C | 93% | 1012.7 hPa | 0 mm | - | - | - |
| 1777457179 | 23.89° C | 42% | 1020.4 hPa | 0 mm | - | - | - |
| 1777457089 | 23.33° C | 93% | 1012.8 hPa | 0 mm | - | - | - |
| 1777457029 | 23.33° C | 93% | 1012.8 hPa | 0 mm | - | - | - |
| 1777456939 | 23.33° C | 93% | 1012.8 hPa | 0 mm | - | - | - |
| 1777456879 | 23.89° C | 42% | 1020.4 hPa | 0 mm | - | - | - |
| 1777456789 | 23.33° C | 93% | 1012.8 hPa | 0 mm | - | - | - |
| 1777456699 | 23.33° C | 93% | 1012.8 hPa | 0 mm | - | - | - |
| 1777456639 | 23.89° C | 42% | 1020.4 hPa | 0 mm | - | - | - |
| 1777456549 | 23.89° C | 42% | 1020.4 hPa | 0 mm | - | - | - |
| 1777456489 | 23.33° C | 93% | 1012.8 hPa | 0 mm | - | - | - |
| 1777456429 | 23.33° C | 93% | 1012.8 hPa | 0 mm | - | - | - |
| 1777456369 | 23.33° C | 92% | 1012.8 hPa | 0 mm | - | - | - |
| 1777456279 | 23.89° C | 42% | 1020.4 hPa | 0 mm | - | - | - |
| 1777456189 | 23.89° C | 42% | 1020.4 hPa | 0 mm | - | - | - |
| 1777456129 | 23.33° C | 92% | 1012.6 hPa | 0 mm | - | - | - |
| 1777456039 | 23.89° C | 42% | 1020.4 hPa | 0 mm | - | - | - |
| 1777455979 | 23.89° C | 42% | 1020.4 hPa | 0 mm | - | - | - |
| 1777455919 | 23.89° C | 42% | 1020.4 hPa | 0 mm | - | - | - |
| 1777455859 | 23.33° C | 92% | 1012.5 hPa | 0 mm | - | - | - |
* Rain latest hour (hover to see other rain measurements)
** Current wind speed in m/s (hover to see current wind gust speed)